Etusivu
METAR-TAF:

METAR-TAF

Lentoasemat :

Iğdır, Turkki

Leveyspiiri: 39-58-36N, Pituuspiiri: 43-52-36E, korkeus merenpinnasta: 945 m

Tämänhetkinen sää

Tämä raportti tehtiin 23 minuuttia sitten, kello 05.50 UTC
Tuuli 12 kn pohjoisen/luoteesta
Lämpötila 10°C
Kosteus 62%
Ilmanpaine 1011 hPa
Näkyvyys 10 km tai enemmän
Hajanaisia pilviä 3500 ft:n korkeudessa
Hajonneita pilviä 8000 ft:n korkeudessa

METAR: LTCT 020550Z 34012KT 9999 SCT035 BKN080 10/03 Q1011

Aika: 09:13 (06:13 UTC)

Sääennuste

Tämä raportti tehtiin 1 tunti ja 33 minuuttia sitten, kello 04.40 UTC
Ennuste voimassa 02. päivästä klo 06 UTC - 02. päivään klo 15 UTC
Tuuli 9 kn lännestä/luoteesta
Näkyvyys 10 km tai enemmän
Hajanaisia pilviä 3500 ft:n korkeudessa
Hajonneita pilviä 7000 ft:n korkeudessa

TAF: LTCT 020440Z 0206/0215 30009KT 9999 SCT035 BKN070

Säähavainnot ja -ennusteet yli 4000 lentoasemalta (METAR- ja TAF-raportit).

Käytössä olevat sääasemat on merkitty karttaan keltaisilla ja punaisilla pisteillä.

Aseta hiiri pisteen päälle nähdäksesi sääaseman nimen.

Klikkaa sitten nähdäksesi säähavainnot ja -ennusteet.

Kartan vaihtaminen: klikkaa mustalla rastilla varustettuja vihreitä pisteitä, niin voit zoomata sisään; viivalla varustettua vihreää pistettä, niin voit zoomata ulos tai vihreitä nuolia, niin pääset viereisille kartoille.


METAR-TAF: